Time;durP1;ratioP1;P1;durP2;ratioP2;P2;SDS_P1;SDS_P2;PMS_P1;PMS_P2;Temp;Humidity;BMP_temperature;BMP_pressure;BME280_temperature;BME280_humidity;BME280_pressure;Samples;Min_cycle;Max_cycle;Signal;HPM_P1;HPM_P2
2024/02/01 00:00:15;;;;;;;;;;;3.10;99.90;;;;;;5031627;28;20033;-59
2024/02/01 00:02:42;;;;;;;;;;;3.10;99.90;;;;;;5036119;28;20298;-61
2024/02/01 00:05:09;;;;;;;;;;;3.10;99.90;;;;;;5028921;28;19929;-60
2024/02/01 00:07:36;;;;;;;;;;;3.10;99.90;;;;;;5036140;28;19936;-59
2024/02/01 00:10:03;;;;;;;;;;;3.10;99.90;;;;;;5029708;28;19939;-61
2024/02/01 00:12:30;;;;;;;;;;;3.10;99.90;;;;;;5030140;28;19929;-61
2024/02/01 00:14:57;;;;;;;;;;;3.10;99.90;;;;;;5028679;28;19991;-59
2024/02/01 00:17:24;;;;;;;;;;;3.10;99.90;;;;;;5029421;28;19929;-66
2024/02/01 00:19:50;;;;;;;;;;;3.10;99.90;;;;;;5029600;28;19972;-63
2024/02/01 00:22:17;;;;;;;;;;;3.00;99.90;;;;;;5030472;28;20019;-65
2024/02/01 00:24:59;;;;;;;;;;;3.10;99.90;;;;;;5030508;28;19932;-59
2024/02/01 00:27:27;;;;;;;;;;;3.10;99.90;;;;;;5030210;28;19932;-64
2024/02/01 00:29:54;;;;;;;;;;;3.00;99.90;;;;;;5034257;28;19929;-60
2024/02/01 00:32:21;;;;;;;;;;;3.00;99.90;;;;;;5036847;28;19933;-61
2024/02/01 00:34:48;;;;;;;;;;;3.10;99.90;;;;;;5034047;28;20554;-68
2024/02/01 00:37:16;;;;;;;;;;;3.10;99.90;;;;;;5032395;28;19935;-66
2024/02/01 00:39:42;;;;;;;;;;;3.10;99.90;;;;;;5028596;28;19961;-64
2024/02/01 00:42:09;;;;;;;;;;;3.10;99.90;;;;;;5030913;28;19953;-61
2024/02/01 00:44:36;;;;;;;;;;;3.10;99.90;;;;;;5031946;28;20016;-64
2024/02/01 00:47:03;;;;;;;;;;;3.10;99.90;;;;;;5025803;28;19932;-60
2024/02/01 00:49:30;;;;;;;;;;;3.10;99.90;;;;;;5028271;28;22084;-59
2024/02/01 00:51:58;;;;;;;;;;;3.10;99.90;;;;;;5031656;28;19926;-60
2024/02/01 00:54:25;;;;;;;;;;;3.10;99.90;;;;;;5031229;28;20043;-67
2024/02/01 00:56:52;;;;;;;;;;;3.10;99.90;;;;;;5037290;28;19972;-59
2024/02/01 00:59:21;;;;;;;;;;;3.10;99.90;;;;;;5041738;28;20331;-62
2024/02/01 01:01:48;;;;;;;;;;;3.10;99.90;;;;;;5034275;28;19932;-59
2024/02/01 01:04:15;;;;;;;;;;;3.10;99.90;;;;;;5034120;28;19933;-60
2024/02/01 01:06:43;;;;;;;;;;;3.10;99.90;;;;;;5036732;28;19940;-60
2024/02/01 01:09:09;;;;;;;;;;;3.10;99.90;;;;;;5037250;28;19929;-59
2024/02/01 01:11:37;;;;;;;;;;;3.10;99.90;;;;;;5034220;28;20279;-61
2024/02/01 01:14:04;;;;;;;;;;;3.10;99.90;;;;;;5034322;28;19928;-62
2024/02/01 01:16:31;;;;;;;;;;;3.10;99.90;;;;;;5036179;28;19925;-62
2024/02/01 01:18:58;;;;;;;;;;;3.10;99.90;;;;;;5032248;28;19932;-62
2024/02/01 01:21:27;;;;;;;;;;;3.10;99.90;;;;;;5033941;28;20020;-59
2024/02/01 01:23:53;;;;;;;;;;;3.10;99.90;;;;;;5035535;28;19936;-60
2024/02/01 01:26:21;;;;;;;;;;;3.10;99.90;;;;;;5038166;28;19933;-62
2024/02/01 01:28:48;;;;;;;;;;;3.10;99.90;;;;;;5035679;28;19936;-63
2024/02/01 01:31:15;;;;;;;;;;;3.20;99.90;;;;;;5030513;28;19960;-62
2024/02/01 01:33:41;;;;;;;;;;;3.20;99.90;;;;;;5043761;28;19925;-60
2024/02/01 01:36:09;;;;;;;;;;;3.20;99.90;;;;;;5033357;28;20948;-59
2024/02/01 01:38:36;;;;;;;;;;;3.20;99.90;;;;;;5037864;28;19925;-59
2024/02/01 01:41:03;;;;;;;;;;;3.20;99.90;;;;;;5033513;28;20279;-61
2024/02/01 01:43:30;;;;;;;;;;;3.20;99.90;;;;;;5037364;28;20411;-60
2024/02/01 01:46:06;;;;;;;;;;;3.20;99.90;;;;;;5033072;28;19937;-62
2024/02/01 01:48:33;;;;;;;;;;;3.20;99.90;;;;;;5034336;28;19925;-59
2024/02/01 01:51:01;;;;;;;;;;;3.20;99.90;;;;;;5032187;28;19964;-59
2024/02/01 01:53:29;;;;;;;;;;;3.20;99.90;;;;;;5032618;28;20367;-62
2024/02/01 01:55:56;;;;;;;;;;;3.30;99.90;;;;;;5030032;28;20011;-64
2024/02/01 01:58:25;;;;;;;;;;;3.20;99.90;;;;;;5031242;28;19929;-60
2024/02/01 02:00:52;;;;;;;;;;;3.30;99.90;;;;;;5032129;28;20319;-63
2024/02/01 02:03:23;;;;;;;;;;;3.30;99.90;;;;;;5032319;28;19925;-65
2024/02/01 02:05:49;;;;;;;;;;;3.30;99.90;;;;;;5034677;28;19987;-65
2024/02/01 02:08:16;;;;;;;;;;;3.30;99.90;;;;;;5031267;28;19991;-62
2024/02/01 02:10:43;;;;;;;;;;;3.30;99.90;;;;;;5035332;28;19972;-61
2024/02/01 02:13:11;;;;;;;;;;;3.30;99.90;;;;;;5034981;28;20462;-60
2024/02/01 02:15:38;;;;;;;;;;;3.30;99.90;;;;;;5031242;28;19932;-59
2024/02/01 02:18:09;;;;;;;;;;;3.30;99.90;;;;;;5037532;28;19932;-62
2024/02/01 02:20:41;;;;;;;;;;;3.30;99.90;;;;;;5031628;28;19928;-63
2024/02/01 02:23:12;;;;;;;;;;;3.30;99.90;;;;;;5033444;28;19925;-63
2024/02/01 02:25:39;;;;;;;;;;;3.40;99.90;;;;;;5033610;28;19931;-60
2024/02/01 02:28:06;;;;;;;;;;;3.30;99.90;;;;;;5035458;28;20016;-59
2024/02/01 02:30:33;;;;;;;;;;;3.40;99.90;;;;;;5029167;28;19925;-60
2024/02/01 02:33:01;;;;;;;;;;;3.40;99.90;;;;;;5030038;28;20271;-59
2024/02/01 02:35:28;;;;;;;;;;;3.40;99.90;;;;;;5038704;28;19931;-59
2024/02/01 02:37:55;;;;;;;;;;;3.50;99.90;;;;;;5037305;28;20446;-59
2024/02/01 02:40:22;;;;;;;;;;;3.40;99.90;;;;;;5027783;28;20386;-63
2024/02/01 02:42:49;;;;;;;;;;;3.50;99.90;;;;;;5031217;28;19925;-59
2024/02/01 02:45:17;;;;;;;;;;;3.50;99.90;;;;;;5037872;28;20682;-60
2024/02/01 02:47:45;;;;;;;;;;;3.50;99.90;;;;;;5030184;28;19964;-60
2024/02/01 02:50:13;;;;;;;;;;;3.50;99.90;;;;;;5027535;28;20877;-62
2024/02/01 02:52:42;;;;;;;;;;;3.60;99.90;;;;;;5033901;28;19929;-65
2024/02/01 02:55:09;;;;;;;;;;;3.60;99.90;;;;;;5033161;28;20538;-59
2024/02/01 02:57:35;;;;;;;;;;;3.60;99.90;;;;;;5030772;28;19933;-60
2024/02/01 03:00:05;;;;;;;;;;;3.60;99.90;;;;;;5028319;28;20020;-62
2024/02/01 03:02:32;;;;;;;;;;;3.60;99.90;;;;;;5035077;28;20375;-62
2024/02/01 03:05:00;;;;;;;;;;;3.60;99.90;;;;;;5031424;28;19925;-59
2024/02/01 03:07:28;;;;;;;;;;;3.60;99.90;;;;;;5029011;28;19925;-60
2024/02/01 03:09:55;;;;;;;;;;;3.60;99.90;;;;;;5028603;28;19976;-60
2024/02/01 03:12:22;;;;;;;;;;;3.60;99.90;;;;;;5030519;28;20387;-61
2024/02/01 03:14:49;;;;;;;;;;;3.60;99.90;;;;;;5026319;28;19925;-62
2024/02/01 03:17:18;;;;;;;;;;;3.50;99.90;;;;;;5031623;28;19933;-59
2024/02/01 03:19:49;;;;;;;;;;;3.50;99.90;;;;;;5029991;28;19987;-60
2024/02/01 03:22:20;;;;;;;;;;;3.50;99.90;;;;;;5029158;28;19944;-63
2024/02/01 03:24:47;;;;;;;;;;;3.40;99.90;;;;;;5025667;28;20294;-60
2024/02/01 03:27:14;;;;;;;;;;;3.40;99.90;;;;;;5036820;28;19925;-63
2024/02/01 03:29:43;;;;;;;;;;;3.40;99.90;;;;;;5033174;28;20443;-67
2024/02/01 03:32:11;;;;;;;;;;;3.40;99.90;;;;;;5032322;28;19936;-60
2024/02/01 03:34:38;;;;;;;;;;;3.40;99.90;;;;;;5033068;28;19931;-63
2024/02/01 03:37:05;;;;;;;;;;;3.40;99.90;;;;;;5032006;28;19933;-60
2024/02/01 03:39:32;;;;;;;;;;;3.30;99.90;;;;;;5034103;28;20558;-60
2024/02/01 03:41:59;;;;;;;;;;;3.30;99.90;;;;;;5030546;28;19929;-64
2024/02/01 03:44:26;;;;;;;;;;;3.30;99.90;;;;;;5029030;28;19929;-64
2024/02/01 03:46:56;;;;;;;;;;;3.30;99.90;;;;;;5029187;28;19929;-66
2024/02/01 03:49:24;;;;;;;;;;;3.30;99.90;;;;;;5031266;28;19939;-60
2024/02/01 03:51:51;;;;;;;;;;;3.30;99.90;;;;;;5035361;28;20024;-62
2024/02/01 03:54:18;;;;;;;;;;;3.30;99.90;;;;;;5028490;28;19933;-59
2024/02/01 03:56:46;;;;;;;;;;;3.30;99.90;;;;;;5028495;28;19932;-63
2024/02/01 03:59:14;;;;;;;;;;;3.30;99.90;;;;;;5028994;28;19925;-61
2024/02/01 04:01:41;;;;;;;;;;;3.30;99.90;;;;;;5029638;28;19925;-61
2024/02/01 04:04:17;;;;;;;;;;;3.30;99.90;;;;;;5026960;28;19960;-59
2024/02/01 04:06:46;;;;;;;;;;;3.30;99.90;;;;;;5029806;28;19932;-60
2024/02/01 04:09:14;;;;;;;;;;;3.20;99.90;;;;;;5026832;28;19979;-60
2024/02/01 04:11:41;;;;;;;;;;;3.30;99.90;;;;;;5030140;28;19929;-62
2024/02/01 04:14:08;;;;;;;;;;;3.20;99.90;;;;;;5030783;28;20333;-58
2024/02/01 04:16:35;;;;;;;;;;;3.20;99.90;;;;;;5034210;28;19952;-60
2024/02/01 04:19:02;;;;;;;;;;;3.20;99.90;;;;;;5039783;28;19925;-60
2024/02/01 04:21:31;;;;;;;;;;;3.20;99.90;;;;;;5034223;28;19931;-60
2024/02/01 04:23:58;;;;;;;;;;;3.20;99.90;;;;;;5032456;28;19936;-62
2024/02/01 04:26:25;;;;;;;;;;;3.20;99.90;;;;;;5035928;28;19931;-62
2024/02/01 04:28:51;;;;;;;;;;;3.20;99.90;;;;;;5037915;28;19957;-61
2024/02/01 04:31:19;;;;;;;;;;;3.10;99.90;;;;;;5034042;28;19979;-65
2024/02/01 04:33:46;;;;;;;;;;;3.10;99.90;;;;;;5035184;28;19933;-63
2024/02/01 04:36:14;;;;;;;;;;;3.10;99.90;;;;;;5032933;28;19929;-61
2024/02/01 04:38:40;;;;;;;;;;;3.10;99.90;;;;;;5033131;28;19929;-61
2024/02/01 04:41:10;;;;;;;;;;;3.10;99.90;;;;;;5035342;28;19933;-62
2024/02/01 04:43:40;;;;;;;;;;;3.10;99.90;;;;;;5036720;28;19925;-60
2024/02/01 04:46:07;;;;;;;;;;;3.10;99.90;;;;;;5035585;28;19932;-66
2024/02/01 04:48:35;;;;;;;;;;;3.00;99.90;;;;;;5040460;28;20410;-59
2024/02/01 04:51:04;;;;;;;;;;;3.00;99.90;;;;;;5036474;28;20016;-61
2024/02/01 04:53:31;;;;;;;;;;;3.00;99.90;;;;;;5060639;28;19987;-63
2024/02/01 04:55:59;;;;;;;;;;;3.00;99.90;;;;;;5039317;28;19983;-68
2024/02/01 04:58:26;;;;;;;;;;;3.00;99.90;;;;;;5037595;28;19925;-59
2024/02/01 05:00:54;;;;;;;;;;;3.00;99.90;;;;;;5032598;28;19979;-60
2024/02/01 05:03:22;;;;;;;;;;;3.00;99.90;;;;;;5039623;28;19951;-61
2024/02/01 05:06:00;;;;;;;;;;;3.00;99.90;;;;;;5035461;28;19925;-59
2024/02/01 05:08:27;;;;;;;;;;;3.00;99.90;;;;;;5033898;28;19925;-63
2024/02/01 05:10:56;;;;;;;;;;;3.00;99.90;;;;;;5028627;28;20472;-66
2024/02/01 05:13:24;;;;;;;;;;;3.00;99.90;;;;;;5032739;28;19925;-66
2024/02/01 05:15:50;;;;;;;;;;;3.00;99.90;;;;;;5030360;28;19947;-60
2024/02/01 05:18:17;;;;;;;;;;;3.00;99.90;;;;;;5031910;28;19936;-65
2024/02/01 05:20:49;;;;;;;;;;;3.00;99.90;;;;;;5032575;28;19955;-68
2024/02/01 05:23:16;;;;;;;;;;;3.00;99.90;;;;;;5033618;28;19933;-61
2024/02/01 05:25:43;;;;;;;;;;;3.00;99.90;;;;;;5034965;28;19929;-60
2024/02/01 05:28:10;;;;;;;;;;;3.00;99.90;;;;;;5027710;28;19933;-67
2024/02/01 05:30:40;;;;;;;;;;;3.00;99.90;;;;;;5034888;28;19929;-60
2024/02/01 05:33:07;;;;;;;;;;;3.00;99.90;;;;;;5030107;28;20402;-60
2024/02/01 05:35:34;;;;;;;;;;;3.00;99.90;;;;;;5032600;28;20016;-66
2024/02/01 05:38:03;;;;;;;;;;;3.00;99.90;;;;;;5032225;28;20367;-62
2024/02/01 05:40:29;;;;;;;;;;;3.00;99.90;;;;;;5031642;28;20378;-64
2024/02/01 05:42:56;;;;;;;;;;;2.90;99.90;;;;;;5028251;28;19972;-64
2024/02/01 05:45:27;;;;;;;;;;;2.90;99.90;;;;;;5026762;28;19976;-60
2024/02/01 05:47:56;;;;;;;;;;;2.90;99.90;;;;;;5030296;28;19925;-66
2024/02/01 05:50:23;;;;;;;;;;;2.90;99.90;;;;;;5028389;28;19983;-62
2024/02/01 05:52:50;;;;;;;;;;;2.90;99.90;;;;;;5032090;28;19925;-58
2024/02/01 05:55:17;;;;;;;;;;;2.90;99.90;;;;;;5038205;28;20310;-59
2024/02/01 05:57:44;;;;;;;;;;;2.90;99.90;;;;;;5038029;28;19991;-64
2024/02/01 06:00:11;;;;;;;;;;;2.90;99.90;;;;;;5034786;28;20251;-67
2024/02/01 06:02:39;;;;;;;;;;;2.90;99.90;;;;;;5036176;28;19956;-59
2024/02/01 06:05:07;;;;;;;;;;;2.90;99.90;;;;;;5033391;28;19928;-60
2024/02/01 06:07:33;;;;;;;;;;;2.90;99.90;;;;;;5032388;28;20015;-58
2024/02/01 06:10:00;;;;;;;;;;;2.80;99.90;;;;;;5036379;28;19925;-61
2024/02/01 06:12:28;;;;;;;;;;;2.80;99.90;;;;;;5033986;28;20386;-59
2024/02/01 06:15:01;;;;;;;;;;;2.80;99.90;;;;;;5022013;28;20757;-69
2024/02/01 06:17:28;;;;;;;;;;;2.80;99.90;;;;;;5034912;28;19932;-63
2024/02/01 06:19:55;;;;;;;;;;;2.80;99.90;;;;;;5027636;28;20016;-61
2024/02/01 06:22:24;;;;;;;;;;;2.80;99.90;;;;;;5030513;28;20027;-67
2024/02/01 06:24:51;;;;;;;;;;;2.70;99.90;;;;;;5031093;28;19924;-59
2024/02/01 06:27:18;;;;;;;;;;;2.80;99.90;;;;;;5032330;28;19929;-60
2024/02/01 06:29:45;;;;;;;;;;;2.80;99.90;;;;;;5029190;28;19940;-67
2024/02/01 06:32:19;;;;;;;;;;;2.80;99.90;;;;;;5032909;28;19978;-65
2024/02/01 06:34:54;;;;;;;;;;;2.80;99.90;;;;;;5039282;28;19925;-58
2024/02/01 06:37:21;;;;;;;;;;;2.80;99.90;;;;;;5035586;28;19932;-60
2024/02/01 06:40:10;;;;;;;;;;;2.70;99.90;;;;;;5032995;28;19932;-61
2024/02/01 06:42:54;;;;;;;;;;;2.70;99.90;;;;;;5034909;28;19925;-61
2024/02/01 06:45:28;;;;;;;;;;;2.70;99.90;;;;;;5043298;28;19956;-59
2024/02/01 06:48:08;;;;;;;;;;;2.70;99.90;;;;;;5033085;28;19926;-61
2024/02/01 06:50:54;;;;;;;;;;;2.70;99.90;;;;;;5036204;28;19925;-60
2024/02/01 06:53:23;;;;;;;;;;;2.70;99.90;;;;;;5029598;28;19925;-60
2024/02/01 06:56:06;;;;;;;;;;;2.70;99.90;;;;;;5031024;28;19929;-59
2024/02/01 06:58:47;;;;;;;;;;;2.70;99.90;;;;;;5029327;28;19929;-60
2024/02/01 07:01:24;;;;;;;;;;;2.70;99.90;;;;;;5034666;28;19925;-59
2024/02/01 07:04:07;;;;;;;;;;;2.70;99.90;;;;;;5052925;28;19952;-60
2024/02/01 07:06:35;;;;;;;;;;;2.70;99.90;;;;;;5049057;28;19929;-59
2024/02/01 07:11:59;;;;;;;;;;;2.70;99.90;;;;;;5053078;28;19986;-61
2024/02/01 07:14:36;;;;;;;;;;;2.70;99.90;;;;;;5050355;28;19925;-68
2024/02/01 07:17:27;;;;;;;;;;;2.70;99.90;;;;;;5049929;28;20271;-60
2024/02/01 07:19:58;;;;;;;;;;;2.70;99.90;;;;;;5054054;28;19931;-63
2024/02/01 07:25:36;;;;;;;;;;;2.70;99.90;;;;;;5027466;28;19925;-65
2024/02/01 07:58:23;;;;;;;;;;;2.80;99.90;;;;;;5052919;28;20298;-63
2024/02/01 08:00:56;;;;;;;;;;;2.80;99.90;;;;;;5050886;28;20520;-61
2024/02/01 08:08:36;;;;;;;;;;;2.90;99.90;;;;;;5057178;28;19925;-59
2024/02/01 08:11:03;;;;;;;;;;;2.90;99.90;;;;;;5058717;28;19975;-67
2024/02/01 08:13:31;;;;;;;;;;;2.90;99.90;;;;;;5049647;28;19987;-66
2024/02/01 08:15:58;;;;;;;;;;;2.90;99.90;;;;;;5053488;28;19956;-65
2024/02/01 08:18:26;;;;;;;;;;;2.90;99.90;;;;;;5057537;28;19932;-67
2024/02/01 08:20:53;;;;;;;;;;;2.90;99.90;;;;;;5062222;28;19983;-61
2024/02/01 08:23:20;;;;;;;;;;;2.90;99.90;;;;;;5054885;28;19932;-59
2024/02/01 08:25:48;;;;;;;;;;;2.90;99.90;;;;;;5055367;28;19971;-68
2024/02/01 08:28:15;;;;;;;;;;;3.00;99.90;;;;;;5058404;28;19924;-59
2024/02/01 08:30:42;;;;;;;;;;;3.00;99.90;;;;;;5057685;28;19979;-64
2024/02/01 08:33:15;;;;;;;;;;;3.00;99.90;;;;;;5052026;28;19932;-61
2024/02/01 08:35:43;;;;;;;;;;;3.00;99.90;;;;;;5054369;28;19939;-59
2024/02/01 08:38:10;;;;;;;;;;;3.10;99.90;;;;;;5053022;28;19951;-64
2024/02/01 08:40:40;;;;;;;;;;;3.10;99.90;;;;;;5056154;28;19967;-59
2024/02/01 08:43:09;;;;;;;;;;;3.10;99.90;;;;;;5054039;28;19925;-59
2024/02/01 08:45:40;;;;;;;;;;;3.10;99.90;;;;;;5054014;28;19932;-60
2024/02/01 08:48:08;;;;;;;;;;;3.10;99.90;;;;;;5054384;28;19925;-61
2024/02/01 08:50:42;;;;;;;;;;;3.20;99.90;;;;;;5053833;28;20367;-64
2024/02/01 08:53:10;;;;;;;;;;;3.20;99.90;;;;;;5054509;28;19928;-66
2024/02/01 08:55:38;;;;;;;;;;;3.20;99.90;;;;;;5056571;28;19925;-60
2024/02/01 08:58:08;;;;;;;;;;;3.20;99.90;;;;;;5056744;28;20405;-59
2024/02/01 09:00:38;;;;;;;;;;;3.20;99.90;;;;;;5054785;28;19929;-59
2024/02/01 09:03:08;;;;;;;;;;;3.20;99.90;;;;;;5055731;28;19925;-60
2024/02/01 09:05:36;;;;;;;;;;;3.20;99.90;;;;;;5052881;28;19929;-61
2024/02/01 09:08:05;;;;;;;;;;;3.20;99.90;;;;;;5053599;28;19933;-60
2024/02/01 09:10:32;;;;;;;;;;;3.20;99.90;;;;;;5050323;28;20135;-59
2024/02/01 09:12:59;;;;;;;;;;;3.20;99.90;;;;;;5053825;28;20434;-63
2024/02/01 09:15:31;;;;;;;;;;;3.20;99.90;;;;;;5050652;28;19924;-62
2024/02/01 09:17:58;;;;;;;;;;;3.20;99.90;;;;;;5055034;28;19963;-59
2024/02/01 09:20:25;;;;;;;;;;;3.20;99.90;;;;;;5052545;28;20370;-61
2024/02/01 09:22:53;;;;;;;;;;;3.20;99.90;;;;;;5051629;28;19933;-59
2024/02/01 09:25:21;;;;;;;;;;;3.20;99.90;;;;;;5054028;28;19991;-60
2024/02/01 09:27:48;;;;;;;;;;;3.20;99.90;;;;;;5050730;28;21096;-61
2024/02/01 09:30:19;;;;;;;;;;;3.20;99.90;;;;;;5051910;28;19970;-61
2024/02/01 09:32:51;;;;;;;;;;;3.20;99.90;;;;;;5061668;28;19963;-61
2024/02/01 09:35:19;;;;;;;;;;;3.20;99.90;;;;;;5053759;28;19976;-63
2024/02/01 09:37:51;;;;;;;;;;;3.20;99.90;;;;;;5049795;28;19975;-61
2024/02/01 09:40:19;;;;;;;;;;;3.20;99.90;;;;;;5057052;28;19924;-60
2024/02/01 09:42:49;;;;;;;;;;;3.20;99.90;;;;;;5052448;28;20025;-62
2024/02/01 09:45:20;;;;;;;;;;;3.30;99.90;;;;;;5059570;28;19924;-70
2024/02/01 09:47:48;;;;;;;;;;;3.30;99.90;;;;;;5047141;28;20335;-62
2024/02/01 09:50:19;;;;;;;;;;;3.30;99.90;;;;;;5056981;28;20826;-60
2024/02/01 09:52:47;;;;;;;;;;;3.30;99.90;;;;;;5055451;28;19996;-61
2024/02/01 09:55:18;;;;;;;;;;;3.30;99.90;;;;;;5053152;28;19935;-63
2024/02/01 09:57:49;;;;;;;;;;;3.40;99.90;;;;;;5054660;28;20640;-61
2024/02/01 10:00:18;;;;;;;;;;;3.40;99.90;;;;;;5052334;28;19933;-61
2024/02/01 10:02:46;;;;;;;;;;;3.50;99.90;;;;;;5053243;28;19928;-63
2024/02/01 10:05:14;;;;;;;;;;;3.50;99.90;;;;;;5040909;28;19952;-62
2024/02/01 10:07:41;;;;;;;;;;;3.40;99.90;;;;;;5057158;28;19978;-58
2024/02/01 10:10:08;;;;;;;;;;;3.40;99.90;;;;;;5053122;28;20373;-59
2024/02/01 10:12:34;;;;;;;;;;;3.50;99.90;;;;;;5051374;28;19924;-59
2024/02/01 10:15:08;;;;;;;;;;;3.50;99.90;;;;;;5049222;28;19979;-61
2024/02/01 10:17:45;;;;;;;;;;;3.40;99.90;;;;;;5054929;28;20027;-60
2024/02/01 10:20:33;;;;;;;;;;;3.40;99.90;;;;;;5054828;28;19960;-59
2024/02/01 10:23:02;;;;;;;;;;;3.40;99.90;;;;;;5050186;28;20348;-61
2024/02/01 10:25:33;;;;;;;;;;;3.40;99.90;;;;;;5051043;28;20299;-66
2024/02/01 10:28:01;;;;;;;;;;;3.50;99.90;;;;;;5050061;28;20031;-67
2024/02/01 10:30:28;;;;;;;;;;;3.50;99.90;;;;;;5052266;28;19983;-61
2024/02/01 10:32:56;;;;;;;;;;;3.60;99.90;;;;;;5057224;28;20773;-62
2024/02/01 10:35:24;;;;;;;;;;;3.60;99.90;;;;;;5054889;28;20270;-64
2024/02/01 10:37:51;;;;;;;;;;;3.60;99.90;;;;;;5055214;28;20386;-61
2024/02/01 10:40:21;;;;;;;;;;;3.60;99.90;;;;;;5053652;28;19925;-67
2024/02/01 10:42:48;;;;;;;;;;;3.60;99.90;;;;;;5052506;28;20021;-63
2024/02/01 10:45:16;;;;;;;;;;;3.60;99.90;;;;;;5053428;28;20358;-60
2024/02/01 10:47:45;;;;;;;;;;;3.50;99.90;;;;;;5054180;28;20031;-63
2024/02/01 10:50:14;;;;;;;;;;;3.60;99.90;;;;;;5056327;28;19990;-60
2024/02/01 10:52:43;;;;;;;;;;;3.60;99.90;;;;;;5049798;28;19932;-60
2024/02/01 10:55:10;;;;;;;;;;;3.60;99.90;;;;;;5054543;28;19932;-67
2024/02/01 10:57:42;;;;;;;;;;;3.70;99.90;;;;;;5052598;28;20379;-60
2024/02/01 11:00:19;;;;;;;;;;;3.70;99.90;;;;;;5050066;28;19955;-63
2024/02/01 11:02:58;;;;;;;;;;;3.70;99.90;;;;;;5050112;28;19932;-60
2024/02/01 11:05:29;;;;;;;;;;;3.70;99.90;;;;;;5045740;28;19929;-63
2024/02/01 11:07:57;;;;;;;;;;;3.70;99.90;;;;;;5052616;28;19929;-59
2024/02/01 11:10:26;;;;;;;;;;;3.80;99.90;;;;;;5051655;28;19960;-59
2024/02/01 11:12:54;;;;;;;;;;;3.80;99.90;;;;;;5051124;28;20015;-59
2024/02/01 11:15:23;;;;;;;;;;;3.80;99.90;;;;;;5046745;28;20320;-61
2024/02/01 11:17:59;;;;;;;;;;;3.80;99.90;;;;;;5034098;28;19968;-62
2024/02/01 11:20:30;;;;;;;;;;;3.80;99.90;;;;;;5048808;28;19932;-59
2024/02/01 11:22:58;;;;;;;;;;;3.80;99.90;;;;;;5059724;28;19929;-60
2024/02/01 11:25:28;;;;;;;;;;;3.80;99.90;;;;;;5053506;28;19979;-60
2024/02/01 11:27:57;;;;;;;;;;;3.80;99.90;;;;;;5055179;28;19925;-59
2024/02/01 11:30:26;;;;;;;;;;;3.90;99.90;;;;;;5053555;28;19972;-63
2024/02/01 11:32:53;;;;;;;;;;;3.90;99.90;;;;;;5052721;28;20381;-67
2024/02/01 11:35:22;;;;;;;;;;;3.90;99.90;;;;;;5051608;28;19924;-62
2024/02/01 11:38:01;;;;;;;;;;;3.90;99.90;;;;;;5053597;28;20397;-60
2024/02/01 11:40:29;;;;;;;;;;;3.90;99.90;;;;;;5050142;28;20618;-64
2024/02/01 11:42:58;;;;;;;;;;;3.90;99.90;;;;;;5053035;28;20026;-69
2024/02/01 11:45:25;;;;;;;;;;;3.90;99.90;;;;;;5054412;28;19925;-64
2024/02/01 11:47:53;;;;;;;;;;;3.90;99.90;;;;;;5050645;28;19991;-59
2024/02/01 11:50:23;;;;;;;;;;;3.90;99.90;;;;;;5052967;28;19925;-58
2024/02/01 11:52:57;;;;;;;;;;;3.90;99.90;;;;;;5052605;28;20294;-64
2024/02/01 11:55:29;;;;;;;;;;;3.90;99.90;;;;;;5052512;28;19935;-66
2024/02/01 11:57:59;;;;;;;;;;;3.90;99.90;;;;;;5050984;28;20039;-62
2024/02/01 12:00:26;;;;;;;;;;;3.90;99.90;;;;;;5051474;28;20306;-65
2024/02/01 12:03:13;;;;;;;;;;;4.00;99.90;;;;;;5054953;28;19940;-60
2024/02/01 12:05:43;;;;;;;;;;;4.00;99.90;;;;;;5049422;28;19929;-59
2024/02/01 12:08:10;;;;;;;;;;;4.00;99.90;;;;;;5052005;28;20330;-59
2024/02/01 12:10:37;;;;;;;;;;;4.00;99.90;;;;;;5049915;28;20060;-63
2024/02/01 12:13:05;;;;;;;;;;;4.10;99.90;;;;;;5054662;28;20400;-58
2024/02/01 12:15:36;;;;;;;;;;;4.10;99.90;;;;;;5045460;28;20354;-60
2024/02/01 12:18:08;;;;;;;;;;;4.00;99.90;;;;;;5053290;28;19983;-58
2024/02/01 12:20:36;;;;;;;;;;;4.10;99.90;;;;;;5053825;28;19936;-58
2024/02/01 12:23:03;;;;;;;;;;;4.10;99.90;;;;;;5052126;28;20232;-59
2024/02/01 12:25:32;;;;;;;;;;;4.10;99.90;;;;;;5047572;28;20011;-64
2024/02/01 12:28:00;;;;;;;;;;;4.10;99.90;;;;;;5053818;28;19925;-63
2024/02/01 12:30:28;;;;;;;;;;;4.20;99.90;;;;;;5044884;28;20329;-65
2024/02/01 12:32:55;;;;;;;;;;;4.20;99.90;;;;;;5044231;28;19939;-64
2024/02/01 12:35:23;;;;;;;;;;;4.10;99.90;;;;;;5041721;28;19960;-59
2024/02/01 12:37:50;;;;;;;;;;;4.10;99.90;;;;;;5053898;28;19970;-61
2024/02/01 12:40:17;;;;;;;;;;;4.10;99.90;;;;;;5044428;28;20396;-61
2024/02/01 12:42:48;;;;;;;;;;;4.10;99.90;;;;;;5050107;28;20017;-62
2024/02/01 12:45:20;;;;;;;;;;;4.20;99.90;;;;;;5050905;28;19929;-60
2024/02/01 12:47:48;;;;;;;;;;;4.20;99.90;;;;;;5064329;28;19964;-60
2024/02/01 12:50:16;;;;;;;;;;;4.20;99.90;;;;;;5049248;28;19936;-61
2024/02/01 12:52:43;;;;;;;;;;;4.20;99.90;;;;;;5053134;28;19928;-62
2024/02/01 12:55:10;;;;;;;;;;;4.20;99.90;;;;;;5053604;28;19929;-62
2024/02/01 12:57:38;;;;;;;;;;;4.30;99.90;;;;;;5051428;28;20614;-59
2024/02/01 13:00:06;;;;;;;;;;;4.30;99.90;;;;;;5047747;28;20674;-59
2024/02/01 13:02:34;;;;;;;;;;;4.30;99.90;;;;;;5051262;28;20028;-60
2024/02/01 13:05:07;;;;;;;;;;;4.30;99.90;;;;;;5052407;28;20302;-59
2024/02/01 13:07:34;;;;;;;;;;;4.30;99.90;;;;;;5057256;28;20435;-63
2024/02/01 13:10:06;;;;;;;;;;;4.20;99.90;;;;;;5055671;28;19925;-62
2024/02/01 13:12:34;;;;;;;;;;;4.20;99.90;;;;;;5066853;28;20018;-63
2024/02/01 13:15:02;;;;;;;;;;;4.30;99.90;;;;;;5052889;28;19968;-61
2024/02/01 13:17:35;;;;;;;;;;;4.20;99.90;;;;;;5049117;28;19935;-62
2024/02/01 13:20:16;;;;;;;;;;;4.20;99.90;;;;;;5062747;28;19966;-59
2024/02/01 13:22:46;;;;;;;;;;;4.20;99.90;;;;;;5050814;28;19933;-60
2024/02/01 13:25:18;;;;;;;;;;;4.30;99.90;;;;;;5048869;28;20457;-61
2024/02/01 13:27:48;;;;;;;;;;;4.20;99.90;;;;;;5052757;28;20898;-61
2024/02/01 13:30:16;;;;;;;;;;;4.20;99.90;;;;;;5049473;28;20004;-60
2024/02/01 13:32:43;;;;;;;;;;;4.20;99.90;;;;;;5050827;28;20023;-60
2024/02/01 13:35:11;;;;;;;;;;;4.20;99.90;;;;;;5046256;28;19928;-61
2024/02/01 13:37:39;;;;;;;;;;;4.10;99.90;;;;;;5052982;28;19925;-63
2024/02/01 13:40:07;;;;;;;;;;;4.10;99.90;;;;;;5052555;28;19975;-60
2024/02/01 13:42:33;;;;;;;;;;;4.10;99.90;;;;;;5054737;28;19932;-59
2024/02/01 13:45:01;;;;;;;;;;;4.00;99.90;;;;;;5051271;28;19964;-64
2024/02/01 13:47:28;;;;;;;;;;;4.00;99.90;;;;;;5049308;28;20011;-63
2024/02/01 13:49:55;;;;;;;;;;;3.90;99.90;;;;;;5054995;28;21146;-60
2024/02/01 13:52:22;;;;;;;;;;;3.90;99.90;;;;;;5053901;28;20359;-59
2024/02/01 13:54:49;;;;;;;;;;;3.90;99.90;;;;;;5049340;28;20556;-59
2024/02/01 13:57:16;;;;;;;;;;;3.90;99.90;;;;;;5054898;28;19968;-60
2024/02/01 13:59:43;;;;;;;;;;;3.90;99.90;;;;;;5049295;28;19972;-59
2024/02/01 14:02:11;;;;;;;;;;;3.90;99.90;;;;;;5048814;28;19935;-62
2024/02/01 14:04:38;;;;;;;;;;;3.90;99.90;;;;;;5051168;28;19936;-60
2024/02/01 14:07:05;;;;;;;;;;;3.80;99.90;;;;;;5052825;28;19952;-59
2024/02/01 14:09:32;;;;;;;;;;;3.70;99.90;;;;;;5050382;28;19932;-62
2024/02/01 14:12:02;;;;;;;;;;;3.70;99.90;;;;;;5051170;28;20232;-60
2024/02/01 14:14:31;;;;;;;;;;;3.70;99.90;;;;;;5041171;28;20023;-62
2024/02/01 14:16:58;;;;;;;;;;;3.70;99.90;;;;;;5045324;28;19933;-65
2024/02/01 14:19:27;;;;;;;;;;;3.70;99.90;;;;;;5046924;28;19924;-64
2024/02/01 14:21:54;;;;;;;;;;;3.70;99.90;;;;;;5048131;28;19959;-59
2024/02/01 14:24:20;;;;;;;;;;;3.70;99.90;;;;;;5052091;28;19928;-62
2024/02/01 14:26:49;;;;;;;;;;;3.70;99.90;;;;;;5050432;28;20393;-58
2024/02/01 14:29:17;;;;;;;;;;;3.70;99.90;;;;;;5050431;28;19936;-58
2024/02/01 14:31:44;;;;;;;;;;;3.70;99.90;;;;;;5048046;28;19933;-64
2024/02/01 14:34:12;;;;;;;;;;;3.60;99.90;;;;;;5053270;28;19933;-64
2024/02/01 14:36:39;;;;;;;;;;;3.60;99.90;;;;;;5049824;28;19932;-60
2024/02/01 14:39:20;;;;;;;;;;;3.60;99.90;;;;;;5052851;28;19924;-62
2024/02/01 14:41:49;;;;;;;;;;;3.60;99.90;;;;;;5049743;28;19931;-66
2024/02/01 14:44:17;;;;;;;;;;;3.60;99.90;;;;;;5056203;28;19932;-58
2024/02/01 14:46:46;;;;;;;;;;;3.60;99.90;;;;;;5048799;28;20448;-60
2024/02/01 14:49:13;;;;;;;;;;;3.60;99.90;;;;;;5050794;28;20283;-60
2024/02/01 14:51:40;;;;;;;;;;;3.60;99.90;;;;;;5048766;28;20714;-62
2024/02/01 14:54:07;;;;;;;;;;;3.60;99.90;;;;;;5050139;28;20023;-59
2024/02/01 14:56:34;;;;;;;;;;;3.60;99.90;;;;;;5054310;28;19928;-59
2024/02/01 14:59:01;;;;;;;;;;;3.60;99.90;;;;;;5050677;28;19974;-62
2024/02/01 15:01:28;;;;;;;;;;;3.60;99.90;;;;;;5047509;28;19982;-64
2024/02/01 15:03:56;;;;;;;;;;;3.60;99.90;;;;;;5055863;28;19928;-58
2024/02/01 15:06:24;;;;;;;;;;;3.60;99.90;;;;;;5050156;28;20378;-64
2024/02/01 15:08:58;;;;;;;;;;;3.50;99.90;;;;;;5053319;28;20377;-61
2024/02/01 15:11:25;;;;;;;;;;;3.50;99.90;;;;;;5052365;28;19924;-60
2024/02/01 15:13:54;;;;;;;;;;;3.50;99.90;;;;;;5047566;28;19924;-64
2024/02/01 15:16:21;;;;;;;;;;;3.50;99.90;;;;;;5046284;28;21437;-60
2024/02/01 15:18:48;;;;;;;;;;;3.50;99.90;;;;;;5047243;28;19972;-63
2024/02/01 15:21:15;;;;;;;;;;;3.50;99.90;;;;;;5051246;28;19952;-61